createdAt,value
2022-09-11T00:00:55.687Z,23.74
2022-09-11T00:01:57.821Z,23.74
2022-09-11T00:03:00.264Z,23.76
2022-09-11T00:04:04.148Z,23.76
2022-09-11T00:05:06.950Z,23.76
2022-09-11T00:06:13.141Z,23.76
2022-09-11T00:07:15.334Z,23.75
2022-09-11T00:08:18.849Z,23.75
2022-09-11T00:09:20.981Z,23.75
2022-09-11T00:10:23.491Z,23.75
2022-09-11T00:12:47.330Z,23.85
2022-09-11T00:13:51.116Z,23.76
2022-09-11T00:14:53.255Z,23.75
2022-09-11T00:15:55.769Z,23.74
2022-09-11T00:16:58.393Z,23.74
2022-09-11T00:18:00.493Z,23.75
2022-09-11T00:19:05.774Z,23.75
2022-09-11T00:20:09.227Z,23.75
2022-09-11T00:21:11.953Z,23.75
2022-09-11T00:22:15.765Z,23.75
2022-09-11T00:23:18.347Z,23.74
2022-09-11T00:24:20.914Z,23.74
2022-09-11T00:25:23.010Z,23.74
2022-09-11T00:26:26.700Z,23.74
2022-09-11T00:27:30.031Z,23.74
2022-09-11T00:28:33.018Z,23.76
2022-09-11T00:29:35.205Z,23.76
2022-09-11T00:30:37.614Z,23.75
2022-09-11T00:31:40.567Z,23.74
2022-09-11T00:32:43.180Z,23.75
2022-09-11T00:33:46.461Z,23.74
2022-09-11T00:34:49.163Z,23.74
2022-09-11T00:35:55.987Z,23.74
2022-09-11T00:36:59.248Z,23.75
2022-09-11T00:38:01.373Z,23.75
2022-09-11T00:39:04.649Z,23.74
2022-09-11T00:40:08.182Z,23.75
2022-09-11T00:42:25.181Z,23.85
2022-09-11T00:43:28.164Z,23.74
2022-09-11T00:44:34.061Z,23.75
2022-09-11T00:45:36.268Z,23.74
2022-09-11T00:46:45.195Z,23.74
2022-09-11T00:47:47.936Z,23.73
2022-09-11T00:48:50.115Z,23.74
2022-09-11T00:49:53.266Z,23.73
2022-09-11T00:50:55.987Z,23.74
2022-09-11T00:52:09.906Z,23.73
2022-09-11T00:53:13.425Z,23.74
2022-09-11T00:54:17.075Z,23.73
2022-09-11T00:55:19.864Z,23.72
2022-09-11T00:56:23.451Z,23.71
2022-09-11T00:57:29.315Z,23.71
2022-09-11T00:58:33.959Z,23.69
2022-09-11T00:59:37.200Z,23.69
2022-09-11T01:00:39.596Z,23.68
2022-09-11T01:01:41.871Z,23.69
2022-09-11T01:02:47.148Z,23.69
2022-09-11T01:03:49.567Z,23.69
2022-09-11T01:04:51.868Z,23.68
2022-09-11T01:05:53.928Z,23.68
2022-09-11T01:06:56.825Z,23.69
2022-09-11T01:07:58.891Z,23.69
2022-09-11T01:09:01.762Z,23.69
2022-09-11T01:10:05.234Z,23.69
2022-09-11T01:12:48.959Z,23.81
2022-09-11T01:15:36.308Z,23.80
2022-09-11T01:16:42.650Z,23.69
2022-09-11T01:17:48.549Z,23.67
2022-09-11T01:19:27.635Z,23.67
2022-09-11T01:21:00.753Z,23.67
2022-09-11T01:22:12.710Z,23.66
2022-09-11T01:23:34.043Z,23.64
2022-09-11T01:24:49.752Z,23.62
2022-09-11T01:27:46.613Z,23.69
2022-09-11T01:30:21.047Z,23.67
2022-09-11T01:31:25.445Z,23.55
2022-09-11T01:32:48.465Z,23.54
2022-09-11T01:34:00.701Z,23.53
2022-09-11T01:35:13.204Z,23.54
2022-09-11T01:36:19.153Z,23.54
2022-09-11T01:38:38.151Z,23.65
2022-09-11T01:39:42.878Z,23.53
2022-09-11T01:42:04.795Z,23.65
2022-09-11T01:43:20.726Z,23.55
2022-09-11T01:45:42.078Z,23.67
2022-09-11T01:46:47.480Z,23.56
2022-09-11T01:47:51.033Z,23.57
2022-09-11T01:50:10.476Z,23.68
2022-09-11T01:51:14.835Z,23.58
2022-09-11T01:52:23.206Z,23.58
2022-09-11T01:53:27.947Z,23.58
2022-09-11T01:54:33.653Z,23.59
2022-09-11T01:55:42.192Z,23.59
2022-09-11T01:56:50.911Z,23.59
2022-09-11T01:57:59.777Z,23.60
2022-09-11T01:59:04.917Z,23.59
2022-09-11T02:00:10.304Z,23.61
2022-09-11T02:01:17.814Z,23.61
2022-09-11T02:02:23.265Z,23.62
2022-09-11T02:03:28.457Z,23.61
2022-09-11T02:07:21.214Z,23.62
2022-09-11T02:12:03.196Z,23.72
2022-09-11T02:13:14.246Z,23.61
2022-09-11T02:14:22.310Z,23.61
2022-09-11T02:15:25.564Z,23.60
2022-09-11T02:17:04.000Z,23.60
2022-09-11T02:18:10.403Z,23.60
2022-09-11T02:19:14.819Z,23.61
2022-09-11T02:20:18.939Z,23.60
2022-09-11T02:21:21.110Z,23.60
2022-09-11T02:22:23.309Z,23.58
2022-09-11T02:23:26.013Z,23.58
2022-09-11T02:24:29.189Z,23.60
2022-09-11T02:25:31.254Z,23.58
2022-09-11T02:27:48.756Z,23.69
2022-09-11T02:28:52.164Z,23.59
2022-09-11T02:29:54.495Z,23.59
2022-09-11T02:30:56.891Z,23.60
2022-09-11T02:31:59.760Z,23.60
2022-09-11T02:33:02.843Z,23.61
2022-09-11T02:34:07.901Z,23.60
2022-09-11T02:35:12.178Z,23.61
2022-09-11T02:36:39.915Z,23.59
2022-09-11T02:37:49.239Z,23.62
2022-09-11T02:40:39.527Z,23.73
2022-09-11T02:41:54.835Z,23.61
2022-09-11T02:43:19.160Z,23.60
2022-09-11T02:44:38.876Z,23.60
2022-09-11T02:46:15.349Z,23.57
2022-09-11T02:47:43.692Z,23.56
2022-09-11T02:49:15.651Z,23.55
2022-09-11T02:50:37.982Z,23.53
2022-09-11T02:51:54.889Z,23.51
2022-09-11T02:53:06.726Z,23.49
2022-09-11T02:54:33.974Z,23.48
2022-09-11T02:55:52.592Z,23.48
2022-09-11T02:57:22.535Z,23.46
2022-09-11T02:58:31.910Z,23.45
2022-09-11T03:00:54.557Z,23.54
2022-09-11T03:01:57.044Z,23.43
2022-09-11T03:03:01.770Z,23.43
2022-09-11T03:04:05.839Z,23.42
2022-09-11T03:05:08.715Z,23.44
2022-09-11T03:07:27.456Z,23.56
2022-09-11T03:08:31.041Z,23.46
2022-09-11T03:09:33.784Z,23.47
2022-09-11T03:10:38.604Z,23.48
2022-09-11T03:11:43.510Z,23.49
2022-09-11T03:12:47.447Z,23.50
2022-09-11T03:13:50.270Z,23.52
2022-09-11T03:14:54.267Z,23.52
2022-09-11T03:15:56.653Z,23.53
2022-09-11T03:16:59.019Z,23.53
2022-09-11T03:18:01.197Z,23.55
2022-09-11T03:19:04.450Z,23.54
2022-09-11T03:20:07.825Z,23.56
2022-09-11T03:21:10.067Z,23.57
2022-09-11T03:22:12.441Z,23.57
2022-09-11T03:23:15.164Z,23.57
2022-09-11T03:24:17.332Z,23.58
2022-09-11T03:25:20.974Z,23.58
2022-09-11T03:26:24.675Z,23.58
2022-09-11T03:27:27.679Z,23.57
2022-09-11T03:28:29.748Z,23.58
2022-09-11T03:29:31.942Z,23.58
2022-09-11T03:30:36.308Z,23.59
2022-09-11T03:31:39.469Z,23.60
2022-09-11T03:32:42.385Z,23.60
2022-09-11T03:33:47.978Z,23.60
2022-09-11T03:34:50.085Z,23.60
2022-09-11T03:35:52.306Z,23.61
2022-09-11T03:36:55.034Z,23.60
2022-09-11T03:37:57.424Z,23.61
2022-09-11T03:39:00.393Z,23.61
2022-09-11T03:40:03.754Z,23.60
2022-09-11T03:41:07.107Z,23.61
2022-09-11T03:42:09.937Z,23.61
2022-09-11T03:43:13.254Z,23.61
2022-09-11T03:44:15.575Z,23.62
2022-09-11T03:45:18.343Z,23.62
2022-09-11T03:46:22.280Z,23.61
2022-09-11T03:47:24.525Z,23.62
2022-09-11T03:48:30.864Z,23.61
2022-09-11T03:49:33.064Z,23.63
2022-09-11T03:50:35.788Z,23.63
2022-09-11T03:51:37.959Z,23.64
2022-09-11T03:52:41.240Z,23.64
2022-09-11T03:53:43.625Z,23.64
2022-09-11T03:54:48.683Z,23.64
2022-09-11T03:55:51.610Z,23.64
2022-09-11T03:56:54.233Z,23.66
2022-09-11T03:57:58.143Z,23.64
2022-09-11T03:59:02.184Z,23.65
2022-09-11T04:00:05.676Z,23.65
2022-09-11T04:01:10.636Z,23.67
2022-09-11T04:02:12.904Z,23.66
2022-09-11T04:03:15.733Z,23.67
2022-09-11T04:04:18.890Z,23.66
2022-09-11T04:05:22.097Z,23.66
2022-09-11T04:06:24.635Z,23.67
2022-09-11T04:07:27.956Z,23.67
2022-09-11T04:08:30.262Z,23.67
2022-09-11T04:09:32.538Z,23.67
2022-09-11T04:10:35.796Z,23.68
2022-09-11T04:11:38.097Z,23.68
2022-09-11T04:12:42.138Z,23.68
2022-09-11T04:13:44.396Z,23.68
2022-09-11T04:14:48.912Z,23.68
2022-09-11T04:15:51.311Z,23.68
2022-09-11T04:16:53.703Z,23.67
2022-09-11T04:17:56.275Z,23.68
2022-09-11T04:19:01.122Z,23.68
2022-09-11T04:20:04.268Z,23.68
2022-09-11T04:21:07.749Z,23.68
2022-09-11T04:22:10.473Z,23.69
2022-09-11T04:23:14.849Z,23.68
2022-09-11T04:24:18.281Z,23.68
2022-09-11T04:25:22.095Z,23.68
2022-09-11T04:26:25.025Z,23.68
2022-09-11T04:27:29.218Z,23.68
2022-09-11T04:28:31.865Z,23.68
2022-09-11T04:29:34.917Z,23.69
2022-09-11T04:30:37.481Z,23.68
2022-09-11T04:31:39.961Z,23.68
2022-09-11T04:32:42.640Z,23.68
2022-09-11T04:33:45.454Z,23.68
2022-09-11T04:34:48.577Z,23.68
2022-09-11T04:35:51.626Z,23.69
2022-09-11T04:36:53.918Z,23.69
2022-09-11T04:37:56.207Z,23.69
2022-09-11T04:38:58.390Z,23.68
2022-09-11T04:40:00.909Z,23.69
2022-09-11T04:41:04.486Z,23.68
2022-09-11T04:42:07.091Z,23.68
2022-09-11T04:43:11.009Z,23.68
2022-09-11T04:44:13.688Z,23.69
2022-09-11T04:45:17.711Z,23.68
2022-09-11T04:46:21.324Z,23.68
2022-09-11T04:47:23.879Z,23.66
2022-09-11T04:48:26.096Z,23.65
2022-09-11T04:49:28.390Z,23.64
2022-09-11T04:50:31.270Z,23.65
2022-09-11T04:51:50.740Z,23.63
2022-09-11T04:52:54.296Z,23.62
2022-09-11T04:53:56.979Z,23.60
2022-09-11T04:54:59.903Z,23.60
2022-09-11T04:56:05.557Z,23.57
2022-09-11T04:57:10.521Z,23.55
2022-09-11T04:58:13.044Z,23.53
2022-09-11T04:59:17.044Z,23.53
2022-09-11T05:00:22.863Z,23.52
2022-09-11T05:01:26.252Z,23.52
2022-09-11T05:02:30.335Z,23.52
2022-09-11T05:03:32.668Z,23.51
2022-09-11T05:04:35.160Z,23.52
2022-09-11T05:05:37.438Z,23.52
2022-09-11T05:06:40.360Z,23.51
2022-09-11T05:07:44.531Z,23.51
2022-09-11T05:08:46.878Z,23.51
2022-09-11T05:09:51.317Z,23.52
2022-09-11T05:10:53.683Z,23.52
2022-09-11T05:11:56.337Z,23.51
2022-09-11T05:12:59.867Z,23.52
2022-09-11T05:14:02.962Z,23.51
2022-09-11T05:15:07.893Z,23.52
2022-09-11T05:16:12.542Z,23.52
2022-09-11T05:17:15.180Z,23.51
2022-09-11T05:18:17.446Z,23.52
2022-09-11T05:19:20.455Z,23.51
2022-09-11T05:20:23.802Z,23.52
2022-09-11T05:21:26.486Z,23.52
2022-09-11T05:22:29.480Z,23.54
2022-09-11T05:23:32.363Z,23.54
2022-09-11T05:24:34.661Z,23.52
2022-09-11T05:25:38.000Z,23.53
2022-09-11T05:26:40.754Z,23.53
2022-09-11T05:27:45.557Z,23.54
2022-09-11T05:28:47.683Z,23.53
2022-09-11T05:29:49.806Z,23.51
2022-09-11T05:30:52.984Z,23.51
2022-09-11T05:31:55.906Z,23.52
2022-09-11T05:32:58.945Z,23.52
2022-09-11T05:34:02.339Z,23.51
2022-09-11T05:35:07.031Z,23.51
2022-09-11T05:36:11.201Z,23.50
2022-09-11T05:37:14.381Z,23.51
2022-09-11T05:38:19.316Z,23.50
2022-09-11T05:39:22.056Z,23.50
2022-09-11T05:40:24.828Z,23.51
2022-09-11T05:41:27.958Z,23.51
2022-09-11T05:42:30.755Z,23.44
2022-09-11T05:43:33.144Z,23.44
2022-09-11T05:44:35.851Z,23.49
2022-09-11T05:45:38.257Z,23.50
2022-09-11T05:46:41.062Z,23.50
2022-09-11T05:47:44.017Z,23.50
2022-09-11T05:48:46.174Z,23.49
2022-09-11T05:49:48.404Z,23.49
2022-09-11T05:52:08.466Z,23.61
2022-09-11T05:53:11.430Z,23.50
2022-09-11T05:54:14.841Z,23.48
2022-09-11T05:55:20.351Z,23.48
2022-09-11T05:56:24.768Z,23.49
2022-09-11T05:57:28.866Z,23.49
2022-09-11T05:58:31.340Z,23.49
2022-09-11T05:59:34.286Z,23.50
2022-09-11T06:00:40.665Z,23.50
2022-09-11T06:01:43.865Z,23.50
2022-09-11T06:02:47.888Z,23.51
2022-09-11T06:03:50.653Z,23.51
2022-09-11T06:04:54.374Z,23.51
2022-09-11T06:05:58.881Z,23.52
2022-09-11T06:07:01.903Z,23.51
2022-09-11T06:08:06.560Z,23.51
2022-09-11T06:09:08.971Z,23.51
2022-09-11T06:10:12.522Z,23.51
2022-09-11T06:11:16.280Z,23.49
2022-09-11T06:12:18.630Z,23.48
2022-09-11T06:13:22.029Z,23.48
2022-09-11T06:14:25.702Z,23.48
2022-09-11T06:15:45.784Z,23.47
2022-09-11T06:16:33.593Z,23.47
2022-09-11T06:17:37.764Z,23.48
2022-09-11T06:18:41.053Z,23.47
2022-09-11T06:19:43.774Z,23.44
2022-09-11T06:20:56.728Z,23.39
2022-09-11T06:21:59.010Z,23.36
2022-09-11T06:23:09.376Z,23.30
2022-09-11T06:24:12.616Z,23.25
2022-09-11T06:25:15.455Z,23.26
2022-09-11T06:26:22.387Z,23.24
2022-09-11T06:27:25.822Z,23.20
2022-09-11T06:28:28.359Z,23.17
2022-09-11T06:29:33.276Z,23.20
2022-09-11T06:30:36.070Z,23.21
2022-09-11T06:31:38.339Z,23.21
2022-09-11T06:32:40.522Z,23.22
2022-09-11T06:33:43.365Z,23.20
2022-09-11T06:34:46.566Z,23.16
2022-09-11T06:37:13.834Z,23.13
2022-09-11T06:38:16.202Z,22.97
2022-09-11T06:39:21.854Z,22.91
2022-09-11T06:40:25.707Z,22.89
2022-09-11T06:41:28.049Z,22.89
2022-09-11T06:42:35.543Z,22.86
2022-09-11T06:43:37.830Z,22.84
2022-09-11T06:44:40.016Z,22.81
2022-09-11T06:45:43.789Z,22.83
2022-09-11T06:46:47.624Z,22.87
2022-09-11T06:47:50.497Z,22.92
2022-09-11T06:48:54.923Z,22.95
2022-09-11T06:51:14.614Z,23.07
2022-09-11T06:54:27.505Z,23.14
2022-09-11T06:56:34.700Z,23.22
2022-09-11T06:57:41.719Z,23.24
2022-09-11T06:58:41.139Z,23.24
2022-09-11T06:59:43.809Z,23.24
2022-09-11T07:00:47.667Z,23.24
2022-09-11T07:02:52.343Z,23.21
2022-09-11T07:03:54.990Z,23.23
2022-09-11T07:04:57.422Z,23.23
2022-09-11T07:06:01.291Z,23.23
2022-09-11T07:07:04.860Z,23.24
2022-09-11T07:08:07.373Z,23.16
2022-09-11T07:09:11.226Z,23.12
2022-09-11T07:10:19.717Z,23.12
2022-09-11T07:11:23.792Z,23.10
2022-09-11T07:18:49.700Z,23.19
2022-09-11T07:23:02.617Z,23.20
2022-09-11T07:26:15.239Z,23.20
2022-09-11T07:27:17.450Z,23.23
2022-09-11T07:28:20.159Z,23.24
2022-09-11T07:29:22.607Z,23.23
2022-09-11T07:30:27.436Z,23.24
2022-09-11T07:31:32.339Z,23.25
2022-09-11T07:32:34.559Z,23.23
2022-09-11T07:33:41.426Z,23.26
2022-09-11T07:34:43.697Z,23.29
2022-09-11T07:35:46.391Z,23.32
2022-09-11T07:36:49.600Z,23.35
2022-09-11T07:37:52.611Z,23.39
2022-09-11T07:38:57.496Z,23.42
2022-09-11T07:41:07.767Z,23.20
2022-09-11T07:43:13.401Z,23.02
2022-09-11T07:44:15.482Z,22.89
2022-09-11T07:45:22.089Z,22.80
2022-09-11T07:46:24.308Z,22.71
2022-09-11T07:48:29.925Z,22.74
2022-09-11T07:49:32.713Z,22.79
2022-09-11T07:50:36.005Z,22.83
2022-09-11T07:53:46.784Z,22.83
2022-09-11T07:54:49.303Z,22.73
2022-09-11T07:55:53.227Z,22.70
2022-09-11T07:56:56.101Z,22.69
2022-09-11T07:57:59.302Z,22.67
2022-09-11T07:59:01.658Z,22.70
2022-09-11T08:04:22.180Z,22.89
2022-09-11T08:05:24.529Z,22.88
2022-09-11T08:06:28.813Z,22.89
2022-09-11T08:07:32.936Z,22.89
2022-09-11T08:08:35.982Z,22.90
2022-09-11T08:10:43.024Z,22.95
2022-09-11T08:11:46.915Z,23.04
2022-09-11T08:12:50.905Z,23.04
2022-09-11T08:13:54.229Z,23.08
2022-09-11T08:14:57.737Z,23.09
2022-09-11T08:16:01.351Z,23.10
2022-09-11T08:17:04.320Z,23.10
2022-09-11T08:18:07.020Z,23.13
2022-09-11T08:19:09.987Z,23.15
2022-09-11T08:20:13.481Z,23.18
2022-09-11T08:21:15.956Z,23.18
2022-09-11T08:22:19.908Z,23.21
2022-09-11T08:23:22.634Z,23.24
2022-09-11T08:24:25.624Z,23.27
2022-09-11T08:25:29.719Z,23.30
2022-09-11T08:26:35.628Z,23.32
2022-09-11T08:27:38.151Z,23.33
2022-09-11T08:28:41.653Z,23.34
2022-09-11T08:29:44.719Z,23.35
2022-09-11T08:30:47.809Z,23.38
2022-09-11T08:31:51.083Z,23.35
2022-09-11T08:32:53.894Z,23.37
2022-09-11T08:33:57.718Z,23.37
2022-09-11T08:35:00.429Z,23.37
2022-09-11T08:36:05.192Z,23.40
2022-09-11T08:37:07.457Z,23.38
2022-09-11T08:38:10.267Z,23.38
2022-09-11T08:39:13.013Z,23.34
2022-09-11T08:40:19.046Z,23.34
2022-09-11T08:41:31.423Z,23.38
2022-09-11T08:42:33.828Z,23.37
2022-09-11T08:43:37.081Z,23.38
2022-09-11T08:44:52.571Z,23.37
2022-09-11T08:46:00.159Z,23.39
2022-09-11T08:47:08.378Z,23.41
2022-09-11T08:48:10.622Z,23.44
2022-09-11T08:49:26.552Z,23.44
2022-09-11T08:50:40.987Z,23.45
2022-09-11T08:51:43.532Z,23.46
2022-09-11T08:52:46.081Z,23.47
2022-09-11T08:53:49.138Z,23.47
2022-09-11T08:54:53.503Z,23.50
2022-09-11T08:57:17.259Z,23.59
2022-09-11T08:58:44.009Z,23.49
2022-09-11T09:00:08.473Z,23.47
2022-09-11T09:01:27.397Z,23.46
2022-09-11T09:02:49.565Z,23.44
2022-09-11T09:04:29.310Z,23.43
2022-09-11T09:05:57.262Z,23.46
2022-09-11T09:07:09.886Z,23.44
2022-09-11T09:09:55.843Z,23.51
2022-09-11T09:11:21.684Z,23.41
2022-09-11T09:14:06.813Z,23.51
2022-09-11T09:15:29.346Z,23.41
2022-09-11T09:16:52.256Z,23.41
2022-09-11T09:19:23.785Z,23.53
2022-09-11T09:22:00.494Z,23.54
2022-09-11T09:23:07.809Z,23.44
2022-09-11T09:24:20.295Z,23.44
2022-09-11T09:25:24.899Z,23.44
2022-09-11T09:26:38.212Z,23.41
2022-09-11T09:29:31.886Z,23.50
2022-09-11T09:31:54.980Z,23.51
2022-09-11T09:32:59.575Z,23.40
2022-09-11T09:34:11.992Z,23.40
2022-09-11T09:37:06.415Z,23.52
2022-09-11T09:38:21.858Z,23.43
2022-09-11T09:39:24.518Z,23.42
2022-09-11T09:40:27.846Z,23.42
2022-09-11T09:41:49.213Z,23.43
2022-09-11T09:43:08.781Z,23.39
2022-09-11T09:44:46.057Z,23.40
2022-09-11T09:46:13.174Z,23.41
2022-09-11T09:47:17.434Z,23.41
2022-09-11T09:48:19.917Z,23.41
2022-09-11T09:50:38.913Z,23.53
2022-09-11T09:51:42.120Z,23.44
2022-09-11T09:52:44.243Z,23.45
2022-09-11T09:53:55.081Z,23.46
2022-09-11T09:55:01.626Z,23.47
2022-09-11T09:56:04.492Z,23.48
2022-09-11T09:57:08.070Z,23.50
2022-09-11T09:58:11.276Z,23.51
2022-09-11T10:00:31.965Z,23.66
2022-09-11T10:01:48.204Z,23.56
2022-09-11T10:02:54.183Z,23.57
2022-09-11T10:04:09.437Z,23.60
2022-09-11T10:05:25.540Z,23.61
2022-09-11T10:06:28.605Z,23.61
2022-09-11T10:07:31.160Z,23.63
2022-09-11T10:08:37.526Z,23.62
2022-09-11T10:09:47.585Z,23.63
2022-09-11T10:11:04.006Z,23.65
2022-09-11T10:12:06.783Z,23.65
2022-09-11T10:13:19.990Z,23.67
2022-09-11T10:14:49.342Z,23.68
2022-09-11T10:15:27.725Z,23.69
2022-09-11T10:16:30.677Z,23.69
2022-09-11T10:17:33.651Z,23.69
2022-09-11T10:18:38.225Z,23.69
2022-09-11T10:19:41.734Z,23.70
2022-09-11T10:20:45.030Z,23.71
2022-09-11T10:21:48.140Z,23.71
2022-09-11T10:22:51.224Z,23.72
2022-09-11T10:23:55.812Z,23.73
2022-09-11T10:25:16.026Z,23.74
2022-09-11T10:28:01.244Z,23.84
2022-09-11T10:29:27.732Z,23.75
2022-09-11T10:31:55.240Z,23.85
2022-09-11T10:33:02.617Z,23.75
2022-09-11T10:34:03.033Z,23.76
2022-09-11T10:35:09.279Z,23.75
2022-09-11T10:36:12.985Z,23.75
2022-09-11T10:38:41.293Z,23.88
2022-09-11T10:39:43.012Z,23.77
2022-09-11T10:41:13.254Z,23.78
2022-09-11T10:44:03.389Z,23.90
2022-09-11T10:46:25.417Z,23.89
2022-09-11T10:47:27.554Z,23.79
2022-09-11T10:48:29.633Z,23.78
2022-09-11T10:49:32.166Z,23.79
2022-09-11T10:50:35.217Z,23.79
2022-09-11T10:51:39.142Z,23.79
2022-09-11T10:54:42.872Z,23.93
2022-09-11T10:57:33.428Z,23.91
2022-09-11T10:58:37.990Z,23.81
2022-09-11T11:00:07.658Z,23.81
2022-09-11T11:01:10.918Z,23.81
2022-09-11T11:02:26.521Z,23.79
2022-09-11T11:03:29.817Z,23.79
2022-09-11T11:04:33.187Z,23.79
2022-09-11T11:05:42.517Z,23.80
2022-09-11T11:08:18.568Z,23.91
2022-09-11T11:09:31.426Z,23.80
2022-09-11T11:10:44.420Z,23.81
2022-09-11T11:12:02.545Z,23.82
2022-09-11T11:13:29.249Z,23.82
2022-09-11T11:14:54.150Z,23.82
2022-09-11T11:16:06.188Z,23.82
2022-09-11T11:17:36.000Z,23.81
2022-09-11T11:18:42.082Z,23.81
2022-09-11T11:19:50.288Z,23.81
2022-09-11T11:20:56.844Z,23.80
2022-09-11T11:22:26.133Z,23.81
2022-09-11T11:25:22.541Z,23.91
2022-09-11T11:26:28.871Z,23.80
2022-09-11T11:27:40.825Z,23.80
2022-09-11T11:29:10.325Z,23.79
2022-09-11T11:30:15.385Z,23.79
2022-09-11T11:33:16.706Z,23.91
2022-09-11T11:34:50.239Z,23.80
2022-09-11T11:36:18.378Z,23.79
2022-09-11T11:37:24.118Z,23.79
2022-09-11T11:38:40.020Z,23.79
2022-09-11T11:39:55.152Z,23.78
2022-09-11T11:41:01.837Z,23.78
2022-09-11T11:42:12.745Z,23.78
2022-09-11T11:43:16.890Z,23.79
2022-09-11T11:45:37.705Z,23.89
2022-09-11T11:46:45.875Z,23.79
2022-09-11T11:47:48.122Z,23.81
2022-09-11T11:49:00.149Z,23.80
2022-09-11T11:50:29.768Z,23.82
2022-09-11T11:53:01.063Z,23.95
2022-09-11T11:55:56.178Z,23.97
2022-09-11T11:57:08.467Z,23.86
2022-09-11T11:58:46.598Z,23.86
2022-09-11T12:01:14.711Z,23.98
2022-09-11T12:03:44.952Z,23.98
2022-09-11T12:04:53.710Z,23.86
2022-09-11T12:05:55.834Z,23.85
2022-09-11T12:06:58.321Z,23.84
2022-09-11T12:08:00.756Z,23.84
2022-09-11T12:09:03.079Z,23.84
2022-09-11T12:10:06.928Z,23.81
2022-09-11T12:11:09.583Z,23.79
2022-09-11T12:12:12.380Z,23.79
2022-09-11T12:13:16.595Z,23.80
2022-09-11T12:14:29.270Z,23.82
2022-09-11T12:15:31.977Z,23.82
2022-09-11T12:16:35.327Z,23.84
2022-09-11T12:17:39.562Z,23.85
2022-09-11T12:18:43.983Z,23.86
2022-09-11T12:21:26.980Z,23.98
2022-09-11T12:22:34.480Z,23.87
2022-09-11T12:23:49.292Z,23.86
2022-09-11T12:24:56.071Z,23.86
2022-09-11T12:26:18.593Z,23.84
2022-09-11T12:27:40.202Z,23.83
2022-09-11T12:28:43.136Z,23.82
2022-09-11T12:29:56.101Z,23.81
2022-09-11T12:31:02.255Z,23.78
2022-09-11T12:32:08.696Z,23.77
2022-09-11T12:34:46.949Z,23.84
2022-09-11T12:35:49.508Z,23.74
2022-09-11T12:38:33.810Z,23.81
2022-09-11T12:39:46.069Z,23.67
2022-09-11T12:41:03.321Z,23.64
2022-09-11T12:42:25.696Z,23.64
2022-09-11T12:43:31.020Z,23.63
2022-09-11T12:44:49.202Z,23.61
2022-09-11T12:45:51.358Z,23.58
2022-09-11T12:47:00.502Z,23.53
2022-09-11T12:48:05.487Z,23.52
2022-09-11T12:49:22.072Z,23.51
2022-09-11T12:50:19.389Z,23.48
2022-09-11T12:51:41.534Z,23.46
2022-09-11T12:52:50.620Z,23.44
2022-09-11T12:53:58.823Z,23.44
2022-09-11T12:55:04.292Z,23.46
2022-09-11T12:56:07.131Z,23.47
2022-09-11T12:57:28.040Z,23.48
2022-09-11T12:59:53.957Z,23.64
2022-09-11T13:01:17.704Z,23.55
2022-09-11T13:02:39.191Z,23.57
2022-09-11T13:03:51.506Z,23.60
2022-09-11T13:04:54.609Z,23.62
2022-09-11T13:05:59.307Z,23.64
2022-09-11T13:07:03.468Z,23.65
2022-09-11T13:08:14.798Z,23.67
2022-09-11T13:09:20.208Z,23.68
2022-09-11T13:11:49.032Z,23.78
2022-09-11T13:12:53.471Z,23.67
2022-09-11T13:13:57.127Z,23.67
2022-09-11T13:15:00.109Z,23.67
2022-09-11T13:17:30.157Z,23.82
2022-09-11T13:18:33.300Z,23.73
2022-09-11T13:19:36.558Z,23.75
2022-09-11T13:20:40.876Z,23.76
2022-09-11T13:21:45.168Z,23.78
2022-09-11T13:22:48.931Z,23.81
2022-09-11T13:23:52.390Z,23.82
2022-09-11T13:25:13.112Z,23.84
2022-09-11T13:26:24.761Z,23.82
2022-09-11T13:27:27.952Z,23.83
2022-09-11T13:28:32.550Z,23.86
2022-09-11T13:29:36.975Z,23.86
2022-09-11T13:30:43.671Z,23.86
2022-09-11T13:31:46.533Z,23.87
2022-09-11T13:32:50.490Z,23.89
2022-09-11T13:33:53.871Z,23.90
2022-09-11T13:34:59.300Z,23.91
2022-09-11T13:36:02.141Z,23.92
2022-09-11T13:37:09.635Z,23.94
2022-09-11T13:38:23.029Z,23.94
2022-09-11T13:39:25.677Z,23.94
2022-09-11T13:40:36.401Z,23.95
2022-09-11T13:41:40.562Z,23.95
2022-09-11T13:42:43.825Z,23.95
2022-09-11T13:43:50.335Z,23.96
2022-09-11T13:44:54.360Z,23.96
2022-09-11T13:47:25.519Z,24.06
2022-09-11T13:48:28.914Z,23.96
2022-09-11T13:49:36.349Z,23.95
2022-09-11T13:50:38.897Z,23.96
2022-09-11T13:51:46.249Z,23.95
2022-09-11T13:52:49.499Z,23.97
2022-09-11T13:53:57.564Z,23.98
2022-09-11T13:55:02.370Z,23.98
2022-09-11T13:56:08.338Z,23.99
2022-09-11T13:58:31.120Z,24.10
2022-09-11T13:59:49.073Z,23.96
2022-09-11T14:00:54.876Z,23.96
2022-09-11T14:01:57.545Z,24.01
2022-09-11T14:03:01.941Z,24.00
2022-09-11T14:04:05.683Z,24.00
2022-09-11T14:05:17.559Z,24.01
2022-09-11T14:06:21.829Z,24.01
2022-09-11T14:07:25.944Z,23.97
2022-09-11T14:08:40.143Z,23.97
2022-09-11T14:09:48.342Z,24.02
2022-09-11T14:10:53.361Z,24.02
2022-09-11T14:11:58.110Z,24.03
2022-09-11T14:13:06.315Z,24.03
2022-09-11T14:15:45.838Z,24.13
2022-09-11T14:16:54.616Z,24.02
2022-09-11T14:18:04.486Z,24.02
2022-09-11T14:19:17.137Z,24.01
2022-09-11T14:20:24.598Z,24.02
2022-09-11T14:21:49.488Z,24.01
2022-09-11T14:22:53.695Z,24.00
2022-09-11T14:23:57.394Z,24.01
2022-09-11T14:26:20.490Z,24.09
2022-09-11T14:27:36.553Z,23.97
2022-09-11T14:28:43.183Z,23.96
2022-09-11T14:29:49.630Z,23.96
2022-09-11T14:31:10.145Z,23.96
2022-09-11T14:32:36.176Z,23.95
2022-09-11T14:33:38.927Z,23.95
2022-09-11T14:34:41.818Z,23.95
2022-09-11T14:35:45.390Z,23.95
2022-09-11T14:36:52.237Z,23.95
2022-09-11T14:37:54.461Z,23.97
2022-09-11T14:38:56.554Z,23.96
2022-09-11T14:40:02.298Z,23.95
2022-09-11T14:41:05.281Z,23.95
2022-09-11T14:42:16.170Z,23.94
2022-09-11T14:43:21.845Z,23.96
2022-09-11T14:44:24.742Z,23.96
2022-09-11T14:45:26.921Z,23.97
2022-09-11T14:46:29.746Z,23.97
2022-09-11T14:47:32.349Z,23.97
2022-09-11T14:48:34.693Z,23.96
2022-09-11T14:49:36.876Z,23.97
2022-09-11T14:50:40.371Z,23.97
2022-09-11T14:51:43.671Z,23.97
2022-09-11T14:52:46.563Z,23.96
2022-09-11T14:53:49.501Z,23.97
2022-09-11T14:54:51.790Z,23.96
2022-09-11T14:55:55.293Z,23.97
2022-09-11T14:56:58.993Z,23.97
2022-09-11T14:58:03.069Z,23.97
2022-09-11T14:59:06.105Z,23.98
2022-09-11T15:00:14.332Z,23.97
2022-09-11T15:01:16.599Z,23.97
2022-09-11T15:02:20.559Z,23.99
2022-09-11T15:03:24.083Z,23.97
2022-09-11T15:04:26.466Z,23.97
2022-09-11T15:05:29.370Z,23.97
2022-09-11T15:06:33.878Z,23.96
2022-09-11T15:07:37.017Z,23.96
2022-09-11T15:08:39.600Z,23.96
2022-09-11T15:09:42.514Z,23.96
2022-09-11T15:10:44.860Z,23.95
2022-09-11T15:11:48.265Z,23.94
2022-09-11T15:12:50.561Z,23.94
2022-09-11T15:14:14.508Z,23.94
2022-09-11T15:15:07.935Z,23.93
2022-09-11T15:16:11.536Z,23.92
2022-09-11T15:17:16.730Z,23.92
2022-09-11T15:18:21.408Z,23.92
2022-09-11T15:19:25.120Z,23.92
2022-09-11T15:20:28.530Z,23.91
2022-09-11T15:21:35.341Z,23.90
2022-09-11T15:22:35.661Z,23.90
2022-09-11T15:23:37.891Z,23.90
2022-09-11T15:24:41.106Z,23.90
2022-09-11T15:25:43.319Z,23.89
2022-09-11T15:26:46.342Z,23.89
2022-09-11T15:27:51.388Z,23.89
2022-09-11T15:28:54.155Z,23.89
2022-09-11T15:29:56.721Z,23.88
2022-09-11T15:30:59.979Z,23.88
2022-09-11T15:32:03.467Z,23.89
2022-09-11T15:33:08.017Z,23.89
2022-09-11T15:34:11.617Z,23.88
2022-09-11T15:35:14.766Z,23.88
2022-09-11T15:36:19.243Z,23.86
2022-09-11T15:37:21.637Z,23.85
2022-09-11T15:38:24.890Z,23.85
2022-09-11T15:39:28.829Z,23.84
2022-09-11T15:40:31.697Z,23.82
2022-09-11T15:41:33.872Z,23.82
2022-09-11T15:42:39.484Z,23.81
2022-09-11T15:43:40.730Z,23.80
2022-09-11T15:44:43.599Z,23.81
2022-09-11T15:45:46.408Z,23.79
2022-09-11T15:46:50.161Z,23.79
2022-09-11T15:47:52.288Z,23.79
2022-09-11T15:48:54.946Z,23.78
2022-09-11T15:49:59.017Z,23.78
2022-09-11T15:51:01.457Z,23.78
2022-09-11T15:52:03.616Z,23.78
2022-09-11T15:53:06.266Z,23.79
2022-09-11T15:54:12.055Z,23.79
2022-09-11T15:55:15.991Z,23.79
2022-09-11T15:56:25.239Z,23.79
2022-09-11T15:57:24.491Z,23.79
2022-09-11T15:58:27.949Z,23.80
2022-09-11T15:59:30.720Z,23.80
2022-09-11T16:00:33.558Z,23.80
2022-09-11T16:01:37.582Z,23.79